Time;durP1;ratioP1;P1;durP2;ratioP2;P2;SDS_P1;SDS_P2;PMS_P1;PMS_P2;Temp;Humidity;BMP_temperature;BMP_pressure;BME280_temperature;BME280_humidity;BME280_pressure;Samples;Min_cycle;Max_cycle;Signal;HPM_P1;HPM_P2
2023/10/18 00:01:15;;;;;;;5.53;2.70;;;5.10;99.90;;;;;;4976166;28;20683;-65
2023/10/18 00:03:42;;;;;;;3.10;2.33;;;5.20;99.90;;;;;;4988079;28;20602;-66
2023/10/18 00:06:15;;;;;;;3.87;2.57;;;5.20;99.90;;;;;;5006004;28;20198;-65
2023/10/18 00:08:42;;;;;;;2.87;2.53;;;5.00;99.90;;;;;;4958114;28;20220;-65
2023/10/18 00:11:09;;;;;;;7.03;3.07;;;5.10;99.90;;;;;;5003166;28;20202;-65
2023/10/18 00:13:36;;;;;;;2.87;2.50;;;;;;;;;;4988754;28;20209;-65
2023/10/18 00:16:05;;;;;;;3.90;2.63;;;5.00;99.90;;;;;;4989726;28;20698;-65
2023/10/18 00:18:32;;;;;;;7.43;2.70;;;;;;;;;;4984108;28;20208;-65
2023/10/18 00:20:58;;;;;;;5.43;2.13;;;4.90;99.90;;;;;;4995992;28;20202;-65
2023/10/18 00:23:27;;;;;;;6.00;2.60;;;4.80;99.90;;;;;;4989867;28;20222;-65
2023/10/18 00:25:54;;;;;;;5.17;2.73;;;4.80;99.90;;;;;;4985676;28;20209;-65
2023/10/18 00:28:21;;;;;;;3.23;2.40;;;5.00;99.90;;;;;;5002836;28;20209;-65
2023/10/18 00:30:49;;;;;;;5.40;2.43;;;4.80;99.90;;;;;;4982365;28;20212;-66
2023/10/18 00:33:18;;;;;;;3.80;2.73;;;5.00;99.90;;;;;;4988157;28;20232;-65
2023/10/18 00:35:47;;;;;;;3.27;2.63;;;5.10;99.90;;;;;;4992848;28;20221;-65
2023/10/18 00:38:17;;;;;;;3.03;2.37;;;5.10;99.90;;;;;;4995874;28;20231;-65
2023/10/18 00:40:49;;;;;;;4.80;2.70;;;5.00;99.90;;;;;;4962075;28;20310;-65
2023/10/18 00:43:20;;;;;;;6.47;2.60;;;5.70;99.90;;;;;;4998375;28;20226;-65
2023/10/18 00:45:48;;;;;;;5.37;2.53;;;5.20;99.90;;;;;;4983437;28;20228;-65
2023/10/18 00:48:15;;;;;;;7.20;2.67;;;5.20;99.90;;;;;;4998685;28;20232;-65
2023/10/18 00:50:45;;;;;;;4.40;2.47;;;5.20;99.90;;;;;;4983207;28;20205;-65
2023/10/18 00:53:18;;;;;;;5.30;2.57;;;5.30;99.90;;;;;;4998930;28;20208;-65
2023/10/18 00:55:52;;;;;;;2.80;2.30;;;5.30;99.90;;;;;;4964063;28;22578;-65
2023/10/18 00:58:20;;;;;;;4.67;2.33;;;5.20;99.90;;;;;;5000193;28;20304;-65
2023/10/18 01:00:48;;;;;;;3.10;2.40;;;5.30;99.90;;;;;;4987715;28;20213;-65
2023/10/18 01:03:28;;;;;;;2.97;2.50;;;5.20;99.90;;;;;;4999712;28;20245;-65
2023/10/18 01:05:59;;;;;;;2.37;2.17;;;5.20;99.90;;;;;;4979082;28;21655;-65
2023/10/18 01:08:29;;;;;;;5.47;2.67;;;5.10;99.90;;;;;;4995931;28;20963;-65
2023/10/18 01:11:03;;;;;;;3.37;2.53;;;5.30;99.90;;;;;;4998707;28;20204;-65
2023/10/18 01:13:30;;;;;;;2.60;2.20;;;5.20;99.90;;;;;;4964656;28;20276;-65
2023/10/18 01:15:57;;;;;;;4.70;2.57;;;5.10;99.90;;;;;;4990004;28;20216;-65
2023/10/18 01:18:26;;;;;;;2.40;2.13;;;5.20;99.90;;;;;;4991385;28;20210;-65
2023/10/18 01:20:53;;;;;;;4.13;2.27;;;5.20;99.90;;;;;;4988386;28;20232;-65
2023/10/18 01:23:20;;;;;;;3.80;2.33;;;5.20;99.90;;;;;;4994618;28;20262;-65
2023/10/18 01:25:48;;;;;;;3.90;2.50;;;5.30;99.90;;;;;;4993993;28;20208;-65
2023/10/18 01:28:15;;;;;;;3.33;2.33;;;5.30;99.90;;;;;;4965905;28;20640;-64
2023/10/18 01:30:42;;;;;;;4.27;2.17;;;4.60;99.90;;;;;;4995702;28;20198;-65
2023/10/18 01:33:12;;;;;;;3.83;2.60;;;5.30;99.90;;;;;;4987427;28;20215;-65
2023/10/18 01:35:46;;;;;;;4.50;2.70;;;;;;;;;;4987443;28;20257;-66
2023/10/18 01:38:19;;;;;;;3.63;2.57;;;5.30;99.90;;;;;;4990085;28;20234;-65
2023/10/18 01:40:53;;;;;;;3.40;2.50;;;5.50;99.90;;;;;;4988837;28;20593;-65
2023/10/18 01:43:21;;;;;;;2.37;2.17;;;;;;;;;;4998275;28;20249;-65
2023/10/18 01:45:49;;;;;;;4.83;2.57;;;5.30;99.90;;;;;;4963416;28;20213;-65
2023/10/18 01:48:18;;;;;;;9.23;3.03;;;5.30;99.90;;;;;;4984943;28;20505;-64
2023/10/18 01:50:46;;;;;;;6.33;2.47;;;5.30;99.90;;;;;;4991962;28;25985;-65
2023/10/18 01:53:16;;;;;;;2.40;2.20;;;5.30;99.90;;;;;;4970145;28;22123;-65
2023/10/18 01:55:46;;;;;;;4.03;2.20;;;5.20;99.90;;;;;;4996231;28;20914;-64
2023/10/18 01:58:15;;;;;;;2.60;2.40;;;5.20;99.90;;;;;;4986331;28;20221;-67
2023/10/18 02:00:44;;;;;;;2.50;2.03;;;5.30;99.90;;;;;;4958515;28;20218;-65
2023/10/18 02:03:12;;;;;;;5.90;2.50;;;5.20;99.90;;;;;;4986011;28;20226;-65
2023/10/18 02:05:43;;;;;;;2.90;2.20;;;5.20;99.90;;;;;;4982378;28;20330;-65
2023/10/18 02:08:11;;;;;;;3.77;2.53;;;5.10;99.90;;;;;;4987242;28;20279;-65
2023/10/18 02:10:40;;;;;;;4.53;2.33;;;5.20;99.90;;;;;;4999476;28;20563;-65
2023/10/18 02:13:08;;;;;;;2.10;1.90;;;5.20;99.90;;;;;;4995147;28;20206;-65
2023/10/18 02:15:39;;;;;;;2.60;2.20;;;5.50;99.90;;;;;;4960234;28;20224;-65
2023/10/18 02:18:06;;;;;;;4.07;2.70;;;5.30;99.90;;;;;;4991496;28;20279;-65
2023/10/18 02:20:34;;;;;;;2.47;2.27;;;6.00;99.90;;;;;;4983422;28;20206;-65
2023/10/18 02:23:10;;;;;;;3.33;2.23;;;5.20;99.90;;;;;;4983174;28;20217;-65
2023/10/18 02:25:42;;;;;;;2.57;2.37;;;5.10;99.90;;;;;;4986928;28;20283;-65
2023/10/18 02:28:11;;;;;;;4.73;2.33;;;5.20;99.90;;;;;;4995403;28;20206;-65
2023/10/18 02:30:39;;;;;;;4.97;2.50;;;5.20;99.90;;;;;;4954804;28;20214;-65
2023/10/18 02:33:06;;;;;;;4.27;2.20;;;5.30;99.90;;;;;;4986204;28;20220;-65
2023/10/18 02:35:40;;;;;;;5.83;2.73;;;5.40;99.90;;;;;;4985181;28;20665;-65
2023/10/18 02:38:10;;;;;;;3.20;2.47;;;5.20;99.90;;;;;;4986593;28;20265;-65
2023/10/18 02:40:40;;;;;;;9.70;2.47;;;5.30;99.90;;;;;;4988571;28;20296;-65
2023/10/18 02:43:11;;;;;;;2.53;2.20;;;5.30;99.90;;;;;;5000927;28;20235;-65
2023/10/18 02:45:40;;;;;;;5.50;2.93;;;5.20;99.90;;;;;;4961211;28;20213;-65
2023/10/18 02:48:13;;;;;;;8.73;2.53;;;5.10;99.90;;;;;;4988607;28;20198;-65
2023/10/18 02:50:41;;;;;;;3.37;2.63;;;5.10;99.90;;;;;;4989882;28;20206;-65
2023/10/18 02:53:08;;;;;;;2.93;2.40;;;5.10;99.90;;;;;;4990812;28;20202;-65
2023/10/18 02:55:38;;;;;;;4.53;2.63;;;5.10;99.90;;;;;;4982888;28;20202;-65
2023/10/18 02:58:07;;;;;;;5.30;2.60;;;5.30;99.90;;;;;;4996073;28;21189;-65
2023/10/18 03:00:40;;;;;;;6.40;2.87;;;5.10;99.90;;;;;;4994695;28;20572;-65
2023/10/18 03:03:09;;;;;;;5.90;2.67;;;5.20;99.90;;;;;;4965666;28;20278;-65
2023/10/18 03:05:41;;;;;;;7.77;2.93;;;5.20;99.90;;;;;;4996650;28;20199;-65
2023/10/18 03:08:10;;;;;;;5.03;2.83;;;5.10;99.90;;;;;;4981859;28;20209;-65
2023/10/18 03:10:43;;;;;;;5.23;2.90;;;5.20;99.90;;;;;;4988780;28;21425;-65
2023/10/18 03:13:13;;;;;;;3.63;2.70;;;;;;;;;;5005345;28;20205;-65
2023/10/18 03:15:52;;;;;;;7.47;2.63;;;5.20;99.90;;;;;;4989624;28;20213;-65
2023/10/18 03:18:24;;;;;;;3.83;2.63;;;5.90;99.90;;;;;;4965488;28;20713;-65
2023/10/18 03:20:53;;;;;;;9.23;2.80;;;5.10;99.90;;;;;;5003978;28;20252;-65
2023/10/18 03:23:20;;;;;;;4.70;2.93;;;5.00;99.90;;;;;;4980869;28;20198;-65
2023/10/18 03:25:48;;;;;;;4.20;2.77;;;5.10;99.90;;;;;;4990794;28;20293;-65
2023/10/18 03:28:15;;;;;;;7.87;3.47;;;5.10;99.90;;;;;;4997273;28;20199;-65
2023/10/18 03:30:45;;;;;;;13.10;5.90;;;5.10;99.90;;;;;;4988356;28;20212;-65
2023/10/18 03:33:12;;;;;;;18.20;6.37;;;;;;;;;;4956140;28;20218;-65
2023/10/18 03:35:40;;;;;;;11.53;4.93;;;5.10;99.90;;;;;;5000946;28;20221;-65
2023/10/18 03:38:17;;;;;;;9.80;4.00;;;0.90;99.90;;;;;;4999024;28;20249;-65
2023/10/18 03:40:49;;;;;;;9.30;3.30;;;4.90;99.90;;;;;;4984235;28;20308;-65
2023/10/18 03:43:18;;;;;;;6.00;3.57;;;4.90;99.90;;;;;;4984055;28;20232;-66
2023/10/18 03:48:39;;;;;;;4.70;3.43;;;4.80;99.90;;;;;;4951071;28;20312;-65
2023/10/18 03:51:07;;;;;;;5.13;2.93;;;4.80;99.90;;;;;;4996719;28;20201;-65
2023/10/18 03:53:34;;;;;;;5.27;3.10;;;4.90;99.90;;;;;;4995799;28;20194;-65
2023/10/18 03:56:04;;;;;;;4.70;3.00;;;4.70;99.90;;;;;;4990569;28;20197;-65
2023/10/18 03:58:34;;;;;;;4.67;2.90;;;4.60;99.90;;;;;;4992767;28;20207;-65
2023/10/18 04:01:02;;;;;;;4.90;3.20;;;4.80;99.90;;;;;;4995277;28;20213;-65
2023/10/18 04:03:29;;;;;;;5.00;3.10;;;4.80;99.90;;;;;;4951476;28;20202;-65
2023/10/18 04:06:03;;;;;;;5.80;3.60;;;4.80;99.90;;;;;;4997276;28;20241;-64
2023/10/18 04:08:32;;;;;;;5.80;3.60;;;4.80;99.90;;;;;;4987866;28;20213;-65
2023/10/18 04:10:59;;;;;;;6.03;3.43;;;4.90;99.90;;;;;;4981102;28;20217;-65
2023/10/18 04:13:28;;;;;;;4.60;3.20;;;4.80;99.90;;;;;;4989000;28;20274;-65
2023/10/18 04:15:59;;;;;;;6.07;3.87;;;4.60;99.90;;;;;;4996819;28;20198;-65
2023/10/18 04:18:29;;;;;;;6.63;3.60;;;4.70;99.90;;;;;;4977107;28;20205;-65
2023/10/18 04:20:59;;;;;;;6.23;3.90;;;4.80;99.90;;;;;;4982268;28;20244;-65
2023/10/18 04:23:27;;;;;;;5.90;3.43;;;4.80;99.90;;;;;;4985143;28;20580;-65
2023/10/18 04:26:01;;;;;;;7.50;3.97;;;5.00;99.90;;;;;;4967690;28;20234;-65
2023/10/18 04:28:29;;;;;;;5.47;4.10;;;4.90;99.90;;;;;;4990921;28;21680;-65
2023/10/18 04:31:00;;;;;;;6.60;4.10;;;5.00;99.90;;;;;;4988829;28;20684;-65
2023/10/18 04:33:34;;;;;;;10.27;4.00;;;4.90;99.90;;;;;;4986711;28;20202;-65
2023/10/18 04:36:07;;;;;;;5.50;3.83;;;4.90;99.90;;;;;;4962875;28;20221;-65
2023/10/18 04:38:37;;;;;;;4.77;3.70;;;4.40;99.90;;;;;;4991603;28;20234;-65
2023/10/18 04:41:08;;;;;;;7.60;5.10;;;4.80;99.90;;;;;;4975054;28;20284;-65
2023/10/18 04:43:36;;;;;;;7.53;4.07;;;;;;;;;;4977394;28;20199;-65
2023/10/18 04:46:07;;;;;;;5.77;3.90;;;4.90;99.90;;;;;;4990674;28;20712;-65
2023/10/18 04:51:28;;;;;;;6.33;4.33;;;4.80;99.90;;;;;;4947069;28;20883;-64
2023/10/18 04:53:56;;;;;;;9.27;4.63;;;5.50;99.90;;;;;;4981349;28;20572;-64
2023/10/18 04:56:31;;;;;;;8.73;4.57;;;5.20;99.90;;;;;;4973536;28;20229;-64
2023/10/18 04:58:59;;;;;;;9.83;4.50;;;5.20;99.90;;;;;;4975891;28;20228;-64
2023/10/18 05:01:36;;;;;;;7.57;4.30;;;5.10;99.90;;;;;;4988784;28;20830;-64
2023/10/18 05:07:00;;;;;;;6.50;4.30;;;5.00;99.90;;;;;;4992963;27;20732;-65
2023/10/18 05:09:31;;;;;;;8.10;4.17;;;5.00;99.90;;;;;;5017937;28;20510;-65
2023/10/18 05:11:59;;;;;;;5.97;4.10;;;5.00;99.90;;;;;;5012435;28;20238;-65
2023/10/18 05:14:42;;;;;;;10.00;4.70;;;5.00;99.90;;;;;;5020707;28;20997;-65
2023/10/18 05:17:13;;;;;;;5.20;3.60;;;5.00;99.90;;;;;;5016741;28;20435;-64
2023/10/18 05:19:41;;;;;;;5.40;4.03;;;4.90;99.90;;;;;;5017153;28;20583;-64
2023/10/18 05:22:17;;;;;;;8.37;4.23;;;4.90;99.90;;;;;;4983120;28;20990;-64
2023/10/18 05:24:46;;;;;;;6.40;4.13;;;4.90;99.90;;;;;;5014534;28;20231;-64
2023/10/18 05:27:24;;;;;;;5.30;3.43;;;4.90;99.90;;;;;;4991260;28;20570;-64
2023/10/18 05:29:52;;;;;;;6.57;3.77;;;4.90;99.90;;;;;;5008975;28;20232;-64
2023/10/18 05:35:21;;;;;;;6.67;4.27;;;4.80;99.90;;;;;;4985792;28;20212;-65
2023/10/18 05:37:59;;;;;;;9.63;4.27;;;5.10;99.90;;;;;;4975418;28;20210;-64
2023/10/18 05:43:22;;;;;;;6.80;4.07;;;4.90;99.90;;;;;;5013091;28;20259;-64
2023/10/18 05:45:48;;;;;;;7.83;4.60;;;4.90;99.90;;;;;;5014640;28;20239;-65
2023/10/18 05:48:17;;;;;;;5.03;3.83;;;5.50;99.90;;;;;;5020684;28;20597;-64
2023/10/18 05:50:49;;;;;;;6.07;4.10;;;5.50;99.90;;;;;;5018419;28;20792;-64
2023/10/18 05:53:19;;;;;;;4.37;3.67;;;5.00;99.90;;;;;;4983755;28;20227;-64
2023/10/18 05:55:52;;;;;;;6.63;4.53;;;5.20;99.90;;;;;;5015748;28;20232;-64
2023/10/18 05:58:25;;;;;;;8.37;4.03;;;5.30;99.90;;;;;;5015416;28;20232;-64
2023/10/18 06:00:52;;;;;;;11.90;4.67;;;5.80;99.90;;;;;;5003024;28;20232;-64
2023/10/18 06:03:20;;;;;;;87.30;49.77;;;5.80;99.90;;;;;;5012304;28;20656;-64
2023/10/18 06:05:47;;;;;;;46.57;28.63;;;5.70;99.90;;;;;;5014101;28;20323;-64
2023/10/18 06:08:14;;;;;;;33.30;16.83;;;5.70;99.90;;;;;;4984398;28;21075;-64
2023/10/18 06:10:42;;;;;;;7.73;4.70;;;5.70;99.90;;;;;;5019593;28;20205;-64
2023/10/18 06:13:10;;;;;;;7.63;4.33;;;5.70;99.90;;;;;;5015237;28;20641;-64
2023/10/18 06:15:39;;;;;;;8.23;4.43;;;5.50;99.90;;;;;;5017790;28;20221;-64
2023/10/18 06:18:07;;;;;;;6.40;4.30;;;5.30;99.90;;;;;;5009522;28;20204;-64
2023/10/18 06:20:37;;;;;;;9.27;4.70;;;5.20;99.90;;;;;;5010589;28;22655;-64
2023/10/18 06:23:36;;;;;;;8.03;4.50;;;5.20;99.90;;;;;;4977392;28;20842;-64
2023/10/18 06:25:59;;;;;;;5.60;3.90;;;5.30;99.90;;;;;;5017798;28;20711;-64
2023/10/18 06:28:26;;;;;;;6.67;4.77;;;5.30;99.90;;;;;;5004310;28;21555;-64
2023/10/18 06:30:54;;;;;;;7.33;4.70;;;5.30;99.90;;;;;;4996682;28;20523;-64
2023/10/18 06:33:21;;;;;;;7.40;4.80;;;5.30;99.90;;;;;;4999296;28;20212;-64
2023/10/18 06:35:52;;;;;;;6.57;4.33;;;5.30;99.90;;;;;;5014575;28;20209;-64
2023/10/18 06:38:22;;;;;;;6.20;4.53;;;5.20;99.90;;;;;;4979031;28;20510;-64
2023/10/18 06:40:51;;;;;;;6.47;4.73;;;5.20;99.90;;;;;;5019143;28;20280;-65
2023/10/18 06:43:20;;;;;;;6.57;4.90;;;5.30;99.90;;;;;;5004889;28;20280;-64
2023/10/18 06:45:48;;;;;;;6.20;4.07;;;5.20;99.90;;;;;;5005365;28;20601;-64
2023/10/18 06:48:16;;;;;;;11.37;5.10;;;5.20;99.90;;;;;;5006443;28;20212;-64
2023/10/18 06:50:45;;;;;;;9.00;4.67;;;5.20;99.90;;;;;;5005103;28;20305;-64
2023/10/18 06:53:14;;;;;;;11.20;4.87;;;;;;;;;;5011464;28;21014;-64
2023/10/18 06:55:44;;;;;;;20.53;5.37;;;5.20;99.90;;;;;;4982071;28;20296;-64
2023/10/18 06:58:33;;;;;;;19.47;5.90;;;5.30;99.90;;;;;;5011880;28;20210;-64
2023/10/18 07:01:13;;;;;;;13.13;6.20;;;5.30;99.90;;;;;;4986180;28;20959;-64
2023/10/18 07:03:42;;;;;;;8.30;4.63;;;4.60;99.90;;;;;;5004436;28;20285;-64
2023/10/18 07:06:16;;;;;;;6.87;4.27;;;5.30;99.90;;;;;;4995009;28;20239;-64
2023/10/18 07:08:44;;;;;;;81.53;14.87;;;5.40;99.90;;;;;;5010019;28;20197;-64
2023/10/18 07:11:16;;;;;;;29.73;6.37;;;5.60;99.90;;;;;;4969400;28;20796;-64
2023/10/18 07:13:46;;;;;;;15.67;5.73;;;5.80;99.90;;;;;;4999525;28;20214;-64
2023/10/18 07:16:18;;;;;;;21.90;5.67;;;5.70;99.90;;;;;;5010388;28;21769;-64
2023/10/18 07:18:46;;;;;;;12.67;5.57;;;5.70;99.90;;;;;;5007000;28;20297;-65
2023/10/18 07:21:18;;;;;;;87.17;47.20;;;5.90;99.90;;;;;;4991287;28;20236;-64
2023/10/18 07:23:53;;;;;;;10.87;5.83;;;5.80;99.90;;;;;;5013244;28;20208;-64
2023/10/18 07:26:21;;;;;;;5.97;4.37;;;5.80;99.90;;;;;;4981698;28;20386;-64
2023/10/18 07:28:49;;;;;;;7.13;4.93;;;6.00;99.90;;;;;;5015079;28;20200;-64
2023/10/18 07:31:18;;;;;;;59.83;28.37;;;7.20;99.90;;;;;;4993665;28;20217;-64
2023/10/18 07:33:45;;;;;;;59.97;28.63;;;6.10;99.90;;;;;;5000509;28;20224;-65
2023/10/18 07:36:13;;;;;;;13.13;4.93;;;6.00;99.90;;;;;;5021339;28;20209;-65
2023/10/18 07:38:48;;;;;;;6.43;4.37;;;;;;;;;;5003310;28;20526;-64
2023/10/18 07:41:15;;;;;;;5.10;3.93;;;6.20;99.90;;;;;;4974921;28;20232;-64
2023/10/18 07:43:44;;;;;;;6.00;4.40;;;6.10;99.90;;;;;;5014280;28;20202;-64
2023/10/18 07:46:16;;;;;;;4.83;3.50;;;6.10;99.90;;;;;;4999949;28;20221;-65
2023/10/18 07:48:48;;;;;;;5.97;3.73;;;6.10;99.90;;;;;;5003574;28;20197;-64
2023/10/18 07:51:24;;;;;;;5.83;4.40;;;6.20;99.90;;;;;;5017523;28;20213;-64
2023/10/18 07:53:53;;;;;;;17.27;5.63;;;6.10;99.90;;;;;;4992290;28;21444;-65
2023/10/18 07:56:26;;;;;;;5.87;4.60;;;6.20;99.90;;;;;;4954672;28;20234;-65
2023/10/18 07:58:55;;;;;;;6.93;5.13;;;6.60;99.90;;;;;;5003268;28;20232;-64
2023/10/18 08:04:09;;;;;;;6.77;4.97;;;6.40;99.90;;;;;;4966168;28;20205;-64
2023/10/18 08:06:39;;;;;;;5.83;5.00;;;6.50;99.90;;;;;;4989078;28;20611;-65
2023/10/18 08:09:06;;;;;;;9.37;5.30;;;6.50;99.90;;;;;;4992064;28;20557;-65
2023/10/18 08:11:34;;;;;;;14.33;5.17;;;6.50;99.90;;;;;;4946775;28;20214;-65
2023/10/18 08:14:16;;;;;;;6.90;4.57;;;6.60;99.90;;;;;;5004841;28;20321;-65
2023/10/18 08:16:52;;;;;;;40.50;25.70;;;5.70;99.90;;;;;;5006724;28;20843;-65
2023/10/18 08:19:24;;;;;;;13.90;7.40;;;7.00;99.90;;;;;;4985968;28;20514;-64
2023/10/18 08:22:09;;;;;;;47.77;26.20;;;6.90;99.90;;;;;;4990705;28;20810;-64
2023/10/18 08:24:37;;;;;;;7.87;5.90;;;7.10;99.90;;;;;;4974338;28;20229;-64
2023/10/18 08:27:10;;;;;;;24.27;6.73;;;7.10;99.90;;;;;;4939491;28;20233;-63
2023/10/18 08:29:37;;;;;;;10.27;5.53;;;7.10;99.90;;;;;;4994371;28;20800;-64
2023/10/18 08:32:09;;;;;;;6.33;4.83;;;7.20;99.90;;;;;;4990239;28;20750;-64
2023/10/18 08:34:37;;;;;;;7.10;5.40;;;7.10;99.90;;;;;;4987827;28;20770;-64
2023/10/18 08:37:05;;;;;;;6.30;4.67;;;7.10;99.90;;;;;;4992883;28;20225;-64
2023/10/18 08:39:32;;;;;;;8.07;4.83;;;;;;;;;;4996469;28;20923;-64
2023/10/18 08:42:08;;;;;;;5.77;5.07;;;7.20;99.90;;;;;;4959721;28;20235;-64
2023/10/18 08:44:38;;;;;;;9.67;5.33;;;7.30;99.90;;;;;;5011189;28;20319;-64
2023/10/18 08:47:12;;;;;;;6.40;5.33;;;7.30;99.90;;;;;;5015418;28;20229;-65
2023/10/18 08:49:51;;;;;;;23.30;5.57;;;7.40;99.90;;;;;;5000765;28;20197;-66
2023/10/18 08:52:20;;;;;;;8.77;5.07;;;7.40;99.90;;;;;;5002346;28;20205;-65
2023/10/18 08:54:49;;;;;;;24.33;13.90;;;6.90;99.90;;;;;;5001438;28;21119;-65
2023/10/18 08:57:24;;;;;;;23.90;13.87;;;7.70;99.90;;;;;;5005584;28;20201;-65
2023/10/18 08:59:52;;;;;;;7.27;5.30;;;7.60;99.90;;;;;;5004359;28;20201;-64
2023/10/18 09:02:21;;;;;;;5.87;4.43;;;7.80;99.90;;;;;;5013266;28;20206;-65
2023/10/18 09:04:54;;;;;;;8.10;5.20;;;7.80;99.90;;;;;;4999158;28;20693;-64
2023/10/18 09:07:21;;;;;;;6.97;5.47;;;7.90;99.90;;;;;;5003683;28;20228;-65
2023/10/18 09:09:57;;;;;;;8.17;5.23;;;7.80;99.90;;;;;;5015587;28;20504;-65
2023/10/18 09:12:33;;;;;;;7.53;5.43;;;8.00;99.90;;;;;;5007970;28;20208;-65
2023/10/18 09:15:25;;;;;;;9.67;6.77;;;7.40;99.90;;;;;;4978735;28;20213;-65
2023/10/18 09:17:47;;;;;;;8.30;6.27;;;8.00;99.90;;;;;;5015202;28;20436;-65
2023/10/18 09:20:16;;;;;;;6.07;5.23;;;8.10;99.90;;;;;;4999436;28;20439;-65
2023/10/18 09:22:47;;;;;;;9.37;5.17;;;8.10;99.90;;;;;;5008409;28;20201;-65
2023/10/18 09:25:14;;;;;;;7.10;5.10;;;8.10;99.90;;;;;;5006388;28;20202;-64
2023/10/18 09:27:41;;;;;;;10.27;5.83;;;8.10;99.90;;;;;;4999156;28;20455;-64
2023/10/18 09:30:13;;;;;;;7.53;5.40;;;7.80;99.90;;;;;;4974226;28;20220;-65
2023/10/18 09:32:40;;;;;;;8.90;6.33;;;8.20;99.90;;;;;;5010964;28;20189;-64
2023/10/18 09:35:08;;;;;;;141.97;76.50;;;8.50;99.90;;;;;;5006180;28;20268;-64
2023/10/18 09:37:38;;;;;;;22.25;7.68;;;8.70;99.90;;;;;;4985843;28;20206;-64
2023/10/18 09:40:11;;;;;;;8.80;6.65;;;8.60;99.90;;;;;;4990052;28;20206;-64
2023/10/18 09:42:38;;;;;;;9.43;5.50;;;8.80;99.90;;;;;;5000503;28;20843;-64
2023/10/18 09:45:08;;;;;;;9.30;6.68;;;8.60;99.90;;;;;;5002356;28;20225;-64
2023/10/18 09:47:36;;;;;;;10.40;6.07;;;8.70;99.90;;;;;;4971293;28;20225;-66
2023/10/18 09:50:08;;;;;;;11.43;6.80;;;8.70;99.90;;;;;;5010624;28;20204;-65
2023/10/18 09:52:48;;;;;;;11.17;6.87;;;8.60;99.90;;;;;;5001452;28;21050;-65
2023/10/18 09:55:20;;;;;;;8.00;5.47;;;8.70;99.90;;;;;;5000425;28;20208;-65
2023/10/18 09:57:59;;;;;;;12.07;6.30;;;8.70;99.90;;;;;;5007912;28;21139;-65
2023/10/18 10:00:29;;;;;;;14.10;7.27;;;8.70;99.90;;;;;;4970328;28;20201;-65
2023/10/18 10:02:58;;;;;;;11.67;5.77;;;8.00;99.90;;;;;;5019935;28;20209;-66
2023/10/18 10:05:26;;;;;;;10.70;6.33;;;8.70;99.90;;;;;;4991820;28;20338;-64
2023/10/18 10:07:56;;;;;;;10.57;6.93;;;8.80;99.90;;;;;;5002559;28;20229;-64
2023/10/18 10:10:43;;;;;;;7.07;5.50;;;8.30;99.90;;;;;;4989772;28;20236;-64
2023/10/18 10:13:13;;;;;;;9.32;5.57;;;8.80;99.90;;;;;;5004389;28;20220;-64
2023/10/18 10:15:41;;;;;;;13.13;4.77;;;8.90;99.90;;;;;;4955982;28;20849;-65
2023/10/18 10:18:11;;;;;;;12.23;6.80;;;8.90;99.90;;;;;;5011849;28;20222;-65
2023/10/18 10:20:40;;;;;;;7.68;5.57;;;9.00;99.90;;;;;;5001452;28;20225;-64
2023/10/18 10:23:15;;;;;;;6.72;4.82;;;8.90;99.90;;;;;;5001289;28;20244;-65
2023/10/18 10:25:48;;;;;;;9.38;5.80;;;7.40;99.90;;;;;;4983789;28;20519;-64
2023/10/18 10:28:53;;;;;;;36.20;21.30;;;9.30;99.90;;;;;;5004284;28;20234;-64
2023/10/18 10:31:22;;;;;;;9.07;6.95;;;9.40;99.90;;;;;;5000567;28;20711;-64
2023/10/18 10:34:19;;;;;;;5.20;4.40;;;8.10;99.90;;;;;;4987035;28;20505;-64
2023/10/18 10:36:47;;;;;;;5.28;4.30;;;9.30;99.90;;;;;;5003479;28;20355;-64
2023/10/18 10:39:30;;;;;;;8.55;4.75;;;9.30;99.90;;;;;;4984749;28;20221;-65
2023/10/18 10:42:08;;;;;;;9.18;5.13;;;9.20;99.90;;;;;;5001081;28;20209;-64
2023/10/18 10:44:55;;;;;;;16.52;6.38;;;9.30;99.90;;;;;;4998466;28;20208;-64
2023/10/18 10:47:32;;;;;;;9.13;5.28;;;9.30;99.90;;;;;;4980565;28;20347;-65
2023/10/18 10:50:00;;;;;;;6.50;4.40;;;9.30;99.90;;;;;;4985319;28;20217;-65
2023/10/18 10:52:30;;;;;;;6.22;4.72;;;9.30;99.90;;;;;;4996606;28;20221;-64
2023/10/18 10:55:05;;;;;;;5.53;4.72;;;9.30;99.90;;;;;;4966806;28;20216;-64
2023/10/18 10:57:35;;;;;;;19.48;6.00;;;9.00;99.90;;;;;;4998007;28;20209;-64
2023/10/18 11:00:22;;;;;;;8.60;4.78;;;9.50;99.90;;;;;;5003273;28;20202;-64
2023/10/18 11:02:53;;;;;;;27.40;7.45;;;9.50;99.90;;;;;;5007687;28;20347;-65
2023/10/18 11:05:24;;;;;;;6.68;4.70;;;9.50;99.90;;;;;;4974281;28;20340;-64
2023/10/18 11:07:54;;;;;;;6.68;4.40;;;9.50;99.90;;;;;;5005467;28;20987;-65
2023/10/18 11:10:22;;;;;;;5.47;4.60;;;9.50;99.90;;;;;;4971104;28;20581;-65
2023/10/18 11:12:49;;;;;;;9.55;5.15;;;9.60;99.90;;;;;;4990637;28;20232;-64
2023/10/18 11:15:20;;;;;;;8.27;4.80;;;10.20;99.90;;;;;;4997992;28;20614;-65
2023/10/18 11:17:49;;;;;;;7.05;4.78;;;9.60;99.90;;;;;;5011480;28;20216;-65
2023/10/18 11:20:19;;;;;;;8.63;5.28;;;9.60;99.90;;;;;;4972166;28;20222;-64
2023/10/18 11:22:50;;;;;;;6.95;4.68;;;9.60;99.90;;;;;;5018521;28;20229;-64
2023/10/18 11:25:21;;;;;;;10.35;4.72;;;9.80;99.90;;;;;;5001687;28;20472;-65
2023/10/18 11:27:49;;;;;;;13.77;7.88;;;9.90;99.90;;;;;;5006639;28;20271;-64
2023/10/18 11:30:22;;;;;;;16.58;10.82;;;10.10;99.90;;;;;;5006109;28;20709;-64
2023/10/18 11:32:50;;;;;;;6.80;4.60;;;10.20;99.90;;;;;;5023798;28;20691;-65
2023/10/18 11:35:19;;;;;;;6.88;4.80;;;10.20;99.90;;;;;;4968829;28;20589;-65
2023/10/18 11:37:47;;;;;;;6.07;4.18;;;10.10;99.90;;;;;;5019792;28;20209;-65
2023/10/18 11:40:18;;;;;;;6.13;4.90;;;10.00;99.90;;;;;;4988607;28;20711;-65
2023/10/18 11:42:54;;;;;;;5.20;4.25;;;10.00;99.90;;;;;;4990912;28;20647;-64
2023/10/18 11:45:22;;;;;;;7.72;4.72;;;10.00;99.90;;;;;;4996189;28;20221;-64
2023/10/18 11:47:50;;;;;;;4.85;4.35;;;10.00;99.90;;;;;;4999010;28;20233;-65
2023/10/18 11:50:17;;;;;;;5.50;4.30;;;10.10;99.90;;;;;;4967596;28;20582;-65
2023/10/18 11:52:48;;;;;;;5.20;4.28;;;10.10;99.90;;;;;;5019968;28;20235;-65
2023/10/18 11:55:15;;;;;;;6.13;4.22;;;10.00;99.90;;;;;;4999304;28;20225;-65
2023/10/18 11:57:46;;;;;;;4.88;4.00;;;10.00;99.90;;;;;;5005751;28;20221;-66
2023/10/18 12:00:27;;;;;;;7.97;4.47;;;10.00;99.90;;;;;;4990613;28;20225;-66
2023/10/18 12:02:55;;;;;;;12.93;8.07;;;10.20;99.90;;;;;;4997001;28;20688;-65
2023/10/18 12:05:27;;;;;;;23.05;12.20;;;10.50;99.90;;;;;;4971414;28;20691;-64
2023/10/18 12:07:54;;;;;;;7.93;4.65;;;10.50;99.90;;;;;;5014642;28;20740;-65
2023/10/18 12:10:34;;;;;;;6.38;4.43;;;10.50;99.90;;;;;;5012339;28;20721;-65
2023/10/18 12:13:02;;;;;;;4.25;3.58;;;10.30;99.90;;;;;;4997018;28;20675;-65
2023/10/18 12:15:31;;;;;;;6.20;4.07;;;10.30;99.90;;;;;;4993738;28;20291;-65
2023/10/18 12:18:01;;;;;;;5.55;3.63;;;10.20;99.90;;;;;;4999852;28;20209;-66
2023/10/18 12:20:34;;;;;;;4.82;3.80;;;10.20;99.90;;;;;;4974552;28;20216;-65
2023/10/18 12:23:03;;;;;;;8.15;3.95;;;10.10;99.90;;;;;;5015549;28;20209;-65
2023/10/18 12:25:32;;;;;;;4.18;3.78;;;10.10;99.90;;;;;;5016055;28;20670;-64
2023/10/18 12:28:00;;;;;;;6.32;3.95;;;10.10;99.90;;;;;;5003262;28;20245;-65
2023/10/18 12:30:31;;;;;;;4.00;3.63;;;10.20;99.90;;;;;;5005492;28;20205;-65
2023/10/18 12:33:04;;;;;;;9.93;3.88;;;10.40;99.90;;;;;;4998187;28;20206;-65
2023/10/18 12:35:31;;;;;;;8.23;5.00;;;10.70;99.90;;;;;;5018453;28;20885;-65
2023/10/18 12:37:58;;;;;;;8.85;3.90;;;9.70;99.90;;;;;;4970907;28;20217;-65
2023/10/18 12:40:39;;;;;;;7.88;4.00;;;10.70;99.90;;;;;;4998240;28;20858;-64
2023/10/18 12:43:06;;;;;;;5.55;3.80;;;10.50;99.90;;;;;;5002119;28;20331;-65
2023/10/18 12:45:41;;;;;;;5.00;3.53;;;10.50;99.90;;;;;;5003303;28;20205;-65
2023/10/18 12:48:10;;;;;;;4.15;3.55;;;10.40;99.90;;;;;;4989676;28;20386;-65
2023/10/18 12:50:37;;;;;;;7.03;3.63;;;10.40;99.90;;;;;;5011046;28;20220;-65
2023/10/18 12:53:16;;;;;;;41.90;23.77;;;10.40;99.90;;;;;;4970330;28;20234;-64
2023/10/18 12:55:45;;;;;;;7.53;4.80;;;10.40;99.90;;;;;;5009774;28;24803;-64
2023/10/18 12:58:18;;;;;;;5.20;3.95;;;10.60;99.90;;;;;;4992778;28;20737;-64
2023/10/18 13:00:45;;;;;;;5.30;3.70;;;10.60;99.90;;;;;;5004529;28;20221;-64
2023/10/18 13:03:21;;;;;;;6.00;4.05;;;10.60;99.90;;;;;;4954740;28;20228;-65
2023/10/18 13:05:52;;;;;;;4.32;3.80;;;10.70;99.90;;;;;;4985321;28;20241;-65
2023/10/18 13:08:24;;;;;;;6.15;3.70;;;10.70;99.90;;;;;;4963320;28;20652;-65
2023/10/18 13:11:44;;;;;;;6.35;3.63;;;10.70;99.90;;;;;;5005038;28;21678;-65
2023/10/18 13:13:46;;;;;;;5.85;3.38;;;;;;;;;;4996523;28;20589;-64
2023/10/18 13:16:15;;;;;;;6.70;4.85;;;11.10;99.90;;;;;;5000776;28;20336;-65
2023/10/18 13:18:43;;;;;;;7.03;4.28;;;10.70;99.90;;;;;;4997056;28;20252;-66
2023/10/18 13:21:12;;;;;;;5.07;3.65;;;10.60;99.90;;;;;;5005868;28;20228;-66
2023/10/18 13:23:44;;;;;;;3.80;3.42;;;10.60;99.90;;;;;;4977359;28;20206;-66
2023/10/18 13:26:15;;;;;;;4.93;3.97;;;9.70;99.90;;;;;;5018184;28;20213;-66
2023/10/18 13:28:51;;;;;;;16.38;10.10;;;10.50;99.90;;;;;;5023141;28;20252;-65
2023/10/18 13:31:22;;;;;;;21.60;14.52;;;10.60;99.90;;;;;;4999379;28;20201;-65